Time;durP1;ratioP1;P1;durP2;ratioP2;P2;SDS_P1;SDS_P2;PMS_P1;PMS_P2;Temp;Humidity;BMP_temperature;BMP_pressure;BME280_temperature;BME280_humidity;BME280_pressure;Samples;Min_cycle;Max_cycle;Signal;HPM_P1;HPM_P2
2023/04/30 00:02:17;;;;;;;37.55;28.60;;;;;;;12.21;100.00;92430.13;5074194;28;20090;-76
2023/04/30 00:04:42;;;;;;;38.17;28.80;;;;;;;12.20;100.00;92428.56;5091296;28;20035;-76
2023/04/30 00:07:08;;;;;;;38.15;29.40;;;;;;;12.19;100.00;92432.28;5074514;28;20044;-77
2023/04/30 00:09:33;;;;;;;41.10;29.95;;;;;;;12.18;100.00;92434.13;5091607;28;20435;-76
2023/04/30 00:11:59;;;;;;;40.17;28.15;;;;;;;12.21;100.00;92424.88;5092547;28;20032;-76
2023/04/30 00:14:25;;;;;;;37.47;28.80;;;;;;;12.20;100.00;92425.94;5073131;28;20044;-76
2023/04/30 00:16:50;;;;;;;37.63;27.58;;;;;;;12.20;100.00;92416.22;5073479;28;20573;-76
2023/04/30 00:19:16;;;;;;;37.85;28.70;;;;;;;12.23;100.00;92423.50;5091184;28;20044;-76
2023/04/30 00:21:41;;;;;;;39.38;29.00;;;;;;;12.27;100.00;92424.47;5090204;28;20566;-76
2023/04/30 00:24:07;;;;;;;38.13;28.45;;;;;;;12.29;100.00;92424.97;5092692;28;20050;-76
2023/04/30 00:26:32;;;;;;;36.92;27.85;;;;;;;12.33;100.00;92421.72;5091388;28;20405;-76
2023/04/30 00:28:58;;;;;;;37.67;28.05;;;;;;;12.36;100.00;92421.13;5092466;28;20040;-76
2023/04/30 00:31:24;;;;;;;40.17;28.52;;;;;;;12.36;100.00;92418.50;5071652;28;20032;-76
2023/04/30 00:33:50;;;;;;;38.53;28.00;;;;;;;12.39;100.00;92407.41;5053331;28;20438;-76
2023/04/30 00:36:16;;;;;;;36.83;27.30;;;;;;;12.43;100.00;92408.38;5077896;28;20063;-76
2023/04/30 00:38:42;;;;;;;39.63;29.50;;;;;;;12.37;100.00;92405.09;5081431;28;20504;-77
2023/04/30 00:41:07;;;;;;;43.50;28.63;;;;;;;12.36;100.00;92414.03;5089990;28;20047;-76
2023/04/30 00:43:33;;;;;;;39.92;28.70;;;;;;;12.36;100.00;92408.00;5089679;28;20124;-76
2023/04/30 00:45:59;;;;;;;41.35;30.05;;;;;;;12.32;100.00;92405.22;5090914;28;20393;-76
2023/04/30 00:48:25;;;;;;;40.60;29.75;;;;;;;12.35;100.00;92406.47;5089924;28;20035;-76
2023/04/30 00:50:51;;;;;;;41.80;30.25;;;;;;;12.35;100.00;92404.59;5089760;28;20096;-76
2023/04/30 00:53:18;;;;;;;40.38;31.27;;;;;;;12.31;100.00;92395.00;5088352;28;20467;-76
2023/04/30 00:55:43;;;;;;;40.20;32.22;;;;;;;12.28;100.00;92385.88;5090451;28;20081;-77
2023/04/30 00:58:09;;;;;;;47.05;32.33;;;;;;;12.28;100.00;92385.88;5090336;28;20036;-76
2023/04/30 01:00:35;;;;;;;50.70;33.80;;;;;;;12.24;100.00;92388.31;5090565;28;20047;-76
2023/04/30 01:03:01;;;;;;;45.33;32.70;;;;;;;12.22;100.00;92393.09;5088528;28;20028;-76
2023/04/30 01:05:27;;;;;;;45.40;33.28;;;;;;;12.22;100.00;92389.69;5072158;28;20099;-76
2023/04/30 01:07:56;;;;;;;44.25;32.55;;;;;;;12.21;100.00;92388.91;5090502;28;20061;-76
2023/04/30 01:10:29;;;;;;;45.10;31.77;;;;;;;12.18;100.00;92375.59;5088670;28;20078;-76
2023/04/30 01:13:17;;;;;;;42.83;32.00;;;;;;;12.19;100.00;92388.44;5090607;28;20035;-76
2023/04/30 01:16:17;;;;;;;39.55;30.13;;;;;;;12.17;100.00;92385.34;5052752;28;20028;-76
2023/04/30 01:18:51;;;;;;;45.45;32.45;;;;;;;12.13;100.00;92389.63;5065172;28;20028;-76
2023/04/30 01:21:21;;;;;;;40.25;30.15;;;;;;;12.10;100.00;92384.97;5091539;28;20039;-77
2023/04/30 01:24:17;;;;;;;41.53;31.75;;;;;;;12.05;100.00;92380.63;5059399;28;20032;-76
2023/04/30 01:26:59;;;;;;;47.22;32.75;;;;;;;12.01;100.00;92386.75;5070289;28;20033;-78
2023/04/30 01:29:26;;;;;;;42.88;30.75;;;;;;;11.96;100.00;92381.63;5089013;28;20039;-76
2023/04/30 01:31:51;;;;;;;42.08;31.52;;;;;;;11.92;100.00;92388.53;5090577;28;20394;-76
2023/04/30 01:34:17;;;;;;;42.00;31.25;;;;;;;11.87;100.00;92394.66;5090689;28;20035;-77
2023/04/30 01:36:57;;;;;;;41.33;31.05;;;;;;;11.81;100.00;92387.94;5056514;28;20059;-76
2023/04/30 01:39:52;;;;;;;41.47;30.75;;;;;;;11.80;100.00;92397.66;5083556;28;20088;-78
2023/04/30 01:42:35;;;;;;;41.03;32.25;;;;;;;11.80;100.00;92395.03;5071044;28;20063;-77
2023/04/30 01:45:32;;;;;;;45.42;32.47;;;;;;;11.80;100.00;92387.19;5088317;28;20370;-77
2023/04/30 01:48:13;;;;;;;44.05;31.42;;;;;;;11.81;100.00;92393.19;5088917;28;20127;-77
2023/04/30 01:50:57;;;;;;;38.60;31.05;;;;;;;11.84;100.00;92397.84;5086916;28;20028;-77
2023/04/30 01:53:30;;;;;;;37.83;27.80;;;;;;;11.86;100.00;92398.31;5079591;28;20034;-77
2023/04/30 01:56:01;;;;;;;35.78;26.63;;;;;;;11.89;100.00;92400.41;5090744;28;20040;-77
2023/04/30 01:58:29;;;;;;;35.10;25.38;;;;;;;11.99;100.00;92404.63;5087043;28;20111;-77
2023/04/30 02:00:55;;;;;;;36.00;24.25;;;;;;;11.94;100.00;92402.13;5064904;28;20149;-77
2023/04/30 02:03:20;;;;;;;37.88;24.05;;;;;;;11.94;100.00;92405.53;5090389;28;20145;-77
2023/04/30 02:05:47;;;;;;;31.33;21.50;;;;;;;12.14;100.00;92406.94;5085830;28;20127;-77
2023/04/30 02:08:13;;;;;;;33.60;23.08;;;;;;;12.01;100.00;92397.25;5069761;28;20045;-77
2023/04/30 02:10:39;;;;;;;33.72;21.58;;;;;;;11.89;100.00;92400.41;5076277;28;20039;-77
2023/04/30 02:13:05;;;;;;;32.17;22.15;;;;;;;12.01;100.00;92402.50;5065899;28;20040;-77
2023/04/30 02:15:30;;;;;;;34.60;23.85;;;;;;;11.97;100.00;92404.16;5054035;28;20712;-77
2023/04/30 02:17:56;;;;;;;34.50;23.25;;;;;;;12.08;100.00;92405.47;5087128;28;20035;-77
2023/04/30 02:20:22;;;;;;;39.20;24.13;;;;;;;11.95;100.00;92403.69;5072713;28;20058;-77
2023/04/30 02:22:47;;;;;;;33.47;22.55;;;;;;;11.97;100.00;92404.16;5088367;28;20032;-77
2023/04/30 02:25:13;;;;;;;35.42;24.05;;;;;;;11.90;100.00;92401.16;5090101;28;20063;-76
2023/04/30 02:27:39;;;;;;;35.38;23.90;;;;;;;11.86;100.00;92404.34;5089416;28;20107;-77
2023/04/30 02:30:05;;;;;;;34.60;25.08;;;;;;;11.82;100.00;92406.03;5090724;28;20058;-77
2023/04/30 02:32:31;;;;;;;34.85;24.63;;;;;;;11.78;100.00;92405.06;5089354;28;20570;-77
2023/04/30 02:34:57;;;;;;;37.90;23.55;;;;;;;11.79;100.00;92408.44;5087661;28;20044;-77
2023/04/30 02:37:22;;;;;;;33.95;24.13;;;;;;;11.86;100.00;92404.34;5091764;28;20028;-77
2023/04/30 02:39:49;;;;;;;35.58;23.75;;;;;;;11.87;100.00;92395.44;5093752;28;20111;-77
2023/04/30 02:42:15;;;;;;;39.08;24.33;;;;;;;11.84;100.00;92403.09;5092988;28;20113;-77
2023/04/30 02:44:40;;;;;;;30.42;23.08;;;;;;;11.80;100.00;92397.66;5092001;28;20044;-77
2023/04/30 02:47:06;;;;;;;35.63;23.55;;;;;;;11.81;100.00;92399.22;5070668;28;20328;-77
2023/04/30 02:49:31;;;;;;;33.10;24.35;;;;;;;11.81;100.00;92399.22;5074181;28;20433;-77
2023/04/30 02:51:57;;;;;;;32.47;24.65;;;;;;;11.84;100.00;92398.63;5072957;28;20494;-77
2023/04/30 02:54:23;;;;;;;33.35;24.33;;;;;;;11.83;100.00;92399.69;5075502;28;20034;-77
2023/04/30 02:56:48;;;;;;;37.03;24.20;;;;;;;11.82;100.00;92394.72;5093542;28;20063;-77
2023/04/30 02:59:14;;;;;;;33.00;23.92;;;;;;;11.84;100.00;92395.22;5076136;28;20092;-77
2023/04/30 03:01:40;;;;;;;34.10;23.90;;;;;;;11.83;100.00;92397.06;5093114;28;20712;-77
2023/04/30 03:04:05;;;;;;;38.22;24.98;;;;;;;11.83;100.00;92397.06;5074643;28;20481;-77
2023/04/30 03:06:32;;;;;;;34.25;23.45;;;;;;;11.85;100.00;92397.56;5092186;28;20036;-77
2023/04/30 03:08:58;;;;;;;35.95;23.83;;;;;;;11.86;100.00;92399.09;5074733;28;20060;-77
2023/04/30 03:11:23;;;;;;;30.33;22.88;;;;;;;11.87;100.00;92394.66;5092275;28;20064;-77
2023/04/30 03:13:50;;;;;;;38.08;24.52;;;;;;;11.86;100.00;92393.84;5091925;28;20512;-77
2023/04/30 03:16:17;;;;;;;34.17;23.50;;;;;;;11.91;100.00;92398.25;5091490;28;20021;-77
2023/04/30 03:18:44;;;;;;;35.03;22.60;;;;;;;11.81;100.00;92393.97;5088057;28;20486;-77
2023/04/30 03:21:10;;;;;;;28.58;19.98;;;;;;;11.90;100.00;92395.94;5086322;28;20401;-77
2023/04/30 03:23:35;;;;;;;31.70;22.73;;;;;;;11.86;100.00;92399.09;5092652;28;20033;-77
2023/04/30 03:26:01;;;;;;;35.15;22.77;;;;;;;11.74;100.00;92390.97;5091765;28;20039;-77
2023/04/30 03:28:27;;;;;;;33.80;22.80;;;;;;;11.76;100.00;92396.69;5093433;28;20397;-77
2023/04/30 03:30:52;;;;;;;31.63;22.58;;;;;;;11.72;100.00;92393.13;5092485;28;20046;-77
2023/04/30 03:33:18;;;;;;;29.25;21.25;;;;;;;11.79;100.00;92393.47;5093327;28;20051;-77
2023/04/30 03:35:44;;;;;;;28.98;22.08;;;;;;;11.69;100.00;92391.09;5090680;28;20036;-77
2023/04/30 03:38:10;;;;;;;31.73;22.08;;;;;;;11.72;100.00;92389.72;5073657;28;20174;-77
2023/04/30 03:40:35;;;;;;;34.50;22.65;;;;;;;11.82;100.00;92397.34;5092062;28;20080;-77
2023/04/30 03:43:01;;;;;;;28.90;21.17;;;;;;;11.73;100.00;92397.31;5094068;28;20421;-77
2023/04/30 03:45:27;;;;;;;30.88;22.15;;;;;;;11.85;100.00;92392.31;5072546;28;20432;-78
2023/04/30 03:47:52;;;;;;;32.20;22.80;;;;;;;11.74;100.00;92388.34;5091823;28;20028;-78
2023/04/30 03:50:18;;;;;;;33.42;23.13;;;;;;;11.70;100.00;92384.00;5091189;28;20131;-78
2023/04/30 03:52:45;;;;;;;37.72;24.98;;;;;;;11.70;100.00;92391.84;5071410;28;20035;-78
2023/04/30 03:55:12;;;;;;;36.30;22.90;;;;;;;11.60;100.00;92385.00;5072396;28;20375;-77
2023/04/30 03:57:39;;;;;;;32.10;23.00;;;;;;;11.63;100.00;92397.50;5081789;28;20039;-77
2023/04/30 04:00:09;;;;;;;33.78;22.58;;;;;;;11.61;100.00;92400.41;5075465;28;20646;-78
2023/04/30 04:02:43;;;;;;;35.20;22.52;;;;;;;11.62;100.00;92401.97;5093298;28;20040;-77
2023/04/30 04:05:10;;;;;;;29.75;23.00;;;;;;;11.64;100.00;92399.03;5091855;28;20404;-78
2023/04/30 04:07:35;;;;;;;34.55;23.88;;;;;;;11.65;100.00;92405.84;5074332;28;20032;-77
2023/04/30 04:10:01;;;;;;;36.55;23.13;;;;;;;11.75;100.00;92397.75;5070950;28;20041;-77
2023/04/30 04:12:28;;;;;;;29.98;22.35;;;;;;;11.69;100.00;92406.06;5080516;28;20336;-77
2023/04/30 04:14:54;;;;;;;35.30;23.77;;;;;;;11.59;100.00;92407.03;5053869;28;20109;-77
2023/04/30 04:17:20;;;;;;;33.60;23.75;;;;;;;11.55;100.00;92403.44;5071310;28;20033;-77
2023/04/30 04:19:46;;;;;;;33.17;24.38;;;;;;;11.59;100.00;92407.03;5054548;28;20076;-77
2023/04/30 04:22:12;;;;;;;41.40;25.42;;;;;;;11.55;100.00;92406.84;5061643;28;20044;-77
2023/04/30 04:24:38;;;;;;;38.53;22.73;;;;;;;11.68;100.00;92410.50;5091429;28;20109;-77
2023/04/30 04:27:04;;;;;;;34.58;24.30;;;;;;;11.71;100.00;92404.69;5091313;28;20481;-77
2023/04/30 04:29:31;;;;;;;37.70;24.92;;;;;;;11.64;100.00;92401.66;5070268;28;20032;-77
2023/04/30 04:31:59;;;;;;;37.28;26.08;;;;;;;11.60;100.00;92404.13;5074769;28;20493;-77
2023/04/30 04:34:25;;;;;;;34.75;24.15;;;;;;;11.68;100.00;92407.88;5062484;28;20051;-77
2023/04/30 04:36:51;;;;;;;33.67;24.75;;;;;;;11.66;100.00;92407.41;5089763;28;20036;-77
2023/04/30 04:39:18;;;;;;;35.88;25.60;;;;;;;11.63;100.00;92408.75;5090755;28;20142;-77
2023/04/30 04:41:44;;;;;;;36.45;25.08;;;;;;;11.63;100.00;92410.59;5074407;28;20382;-77
2023/04/30 04:44:10;;;;;;;37.28;26.10;;;;;;;11.64;100.00;92402.47;5090089;28;20046;-77
2023/04/30 04:46:41;;;;;;;33.38;24.88;;;;;;;11.66;100.00;92407.41;5091020;28;20323;-77
2023/04/30 04:49:06;;;;;;;36.75;25.52;;;;;;;11.65;100.00;92400.59;5073874;28;20039;-77
2023/04/30 04:51:32;;;;;;;33.60;24.73;;;;;;;11.67;100.00;92406.34;5088631;28;20104;-77
2023/04/30 04:53:58;;;;;;;34.25;24.15;;;;;;;11.67;100.00;92414.19;5070071;28;20033;-77
2023/04/30 04:56:24;;;;;;;37.10;25.33;;;;;;;11.68;100.00;92415.75;5087557;28;20028;-77
2023/04/30 04:58:49;;;;;;;34.03;24.70;;;;;;;11.69;100.00;92412.06;5070583;28;20060;-77
2023/04/30 05:01:15;;;;;;;38.40;24.58;;;;;;;11.71;100.00;92419.63;5073801;28;20040;-77
2023/04/30 05:03:40;;;;;;;34.80;24.58;;;;;;;11.72;100.00;92421.97;5078671;28;20173;-78
2023/04/30 05:06:06;;;;;;;34.75;23.92;;;;;;;11.75;100.00;92426.59;5070625;28;20037;-77
2023/04/30 05:08:32;;;;;;;31.58;23.67;;;;;;;11.78;100.00;92420.03;5091643;28;20405;-77
2023/04/30 05:10:57;;;;;;;29.58;22.77;;;;;;;11.82;100.00;92408.66;5073816;28;20059;-77
2023/04/30 05:13:23;;;;;;;30.92;22.70;;;;;;;11.85;100.00;92407.28;5072230;28;20413;-77
2023/04/30 05:15:50;;;;;;;27.90;21.38;;;;;;;11.87;100.00;92413.81;5072922;28;20036;-78
2023/04/30 05:18:16;;;;;;;30.88;21.80;;;;;;;11.90;100.00;92411.66;5092606;28;20077;-78
2023/04/30 05:20:42;;;;;;;28.13;21.38;;;;;;;11.93;100.00;92413.69;5090632;28;20055;-78
2023/04/30 05:23:07;;;;;;;30.77;21.65;;;;;;;11.94;100.00;92418.66;5092224;28;20031;-78
2023/04/30 05:25:34;;;;;;;33.10;22.02;;;;;;;11.96;100.00;92420.97;5063390;28;20059;-78
2023/04/30 05:28:00;;;;;;;30.75;21.45;;;;;;;12.01;100.00;92421.63;5088220;28;20039;-78
2023/04/30 05:30:26;;;;;;;31.00;23.08;;;;;;;12.00;100.00;92424.53;5089655;28;20109;-77
2023/04/30 05:32:52;;;;;;;33.65;22.70;;;;;;;11.96;100.00;92424.38;5091878;28;20082;-77
2023/04/30 05:35:18;;;;;;;35.63;25.40;;;;;;;11.83;100.00;92425.91;5091127;28;20482;-77
2023/04/30 05:37:45;;;;;;;30.65;22.27;;;;;;;11.94;100.00;92423.13;5091083;28;20051;-77
2023/04/30 05:40:11;;;;;;;31.15;22.65;;;;;;;12.03;100.00;92426.59;5090850;28;20044;-77
2023/04/30 05:42:37;;;;;;;30.20;22.45;;;;;;;11.99;100.00;92425.63;5090031;28;20039;-77
2023/04/30 05:45:03;;;;;;;30.65;22.58;;;;;;;12.04;100.00;92430.75;5090917;28;20228;-77
2023/04/30 05:47:28;;;;;;;31.15;23.05;;;;;;;12.08;100.00;92431.72;5090931;28;20024;-77
2023/04/30 05:49:54;;;;;;;33.70;23.00;;;;;;;12.03;100.00;92437.09;5088670;28;20494;-77
2023/04/30 05:52:20;;;;;;;33.65;23.55;;;;;;;12.04;100.00;92433.38;5091109;28;20040;-77
2023/04/30 05:54:47;;;;;;;34.67;24.27;;;;;;;12.05;100.00;92434.94;5088654;28;20040;-77
2023/04/30 05:57:12;;;;;;;32.38;22.65;;;;;;;12.10;100.00;92437.44;5089997;28;20027;-77
2023/04/30 05:59:38;;;;;;;30.58;22.63;;;;;;;12.27;100.00;92440.22;5088215;28;21229;-78
2023/04/30 06:02:04;;;;;;;32.47;23.83;;;;;;;12.28;100.00;92436.50;5088124;28;20397;-78
2023/04/30 06:04:30;;;;;;;28.92;22.05;;;;;;;12.30;100.00;92441.47;5090230;28;20134;-77
2023/04/30 06:06:56;;;;;;;30.25;21.52;;;;;;;12.37;100.00;92443.69;5086591;28;20065;-77
2023/04/30 06:09:21;;;;;;;29.65;23.25;;;;;;;12.36;100.00;92442.13;5084232;28;20275;-77
2023/04/30 06:11:49;;;;;;;36.60;22.67;;;;;;;12.39;100.00;92433.66;5077864;28;20024;-77
2023/04/30 06:14:19;;;;;;;26.73;21.00;;;;;;;12.45;100.00;92433.25;5087230;28;20036;-77
2023/04/30 06:16:44;;;;;;;29.52;21.50;;;;;;;12.52;100.00;92442.53;5093118;28;20401;-77
2023/04/30 06:19:11;;;;;;;29.35;19.92;;;;;;;12.52;100.00;92438.09;5084001;28;20041;-77
2023/04/30 06:21:36;;;;;;;28.83;19.27;;;;;;;12.55;100.00;92437.47;5085192;28;20428;-78
2023/04/30 06:24:02;;;;;;;25.33;19.85;;;;;;;12.58;100.00;92439.50;5071303;28;20037;-77
2023/04/30 06:26:28;;;;;;;29.08;20.65;;;;;;;12.61;100.00;92438.13;5081534;28;20032;-76
2023/04/30 06:28:53;;;;;;;25.92;20.65;;;;;;;12.61;100.00;92435.50;5083406;28;20056;-76
2023/04/30 06:31:20;;;;;;;25.42;19.55;;;;;;;12.69;100.00;92442.66;5071747;28;20040;-76
2023/04/30 06:33:45;;;;;;;23.58;17.85;;;;;;;12.82;100.00;92443.69;5088515;28;20028;-76
2023/04/30 06:36:11;;;;;;;25.63;18.50;;;;;;;12.70;100.00;92434.50;5094069;28;20040;-76
2023/04/30 06:38:36;;;;;;;29.85;19.85;;;;;;;12.63;100.00;92441.22;5074344;28;20421;-77
2023/04/30 06:41:02;;;;;;;26.20;19.73;;;;;;;12.59;100.00;92438.44;5093934;28;20132;-77
2023/04/30 06:43:28;;;;;;;25.33;18.33;;;;;;;12.51;100.00;92447.03;5087998;28;20504;-79
2023/04/30 06:45:53;;;;;;;26.35;20.67;;;;;;;12.63;100.00;92449.91;5090385;28;20040;-79
2023/04/30 06:48:19;;;;;;;27.17;15.73;;;;;;;12.71;100.00;92451.78;5091049;28;20047;-77
2023/04/30 06:50:45;;;;;;;24.35;17.95;;;;;;;12.59;100.00;92451.56;5090548;28;20493;-79
2023/04/30 06:53:12;;;;;;;22.95;17.50;;;;;;;12.38;100.00;92448.63;5080058;28;20112;-76
2023/04/30 06:55:37;;;;;;;25.60;16.88;;;;;;;12.58;100.00;92455.25;5092997;28;20122;-79
2023/04/30 06:58:04;;;;;;;24.30;18.92;;;;;;;12.44;100.00;92462.41;5093183;28;20161;-79
2023/04/30 07:00:30;;;;;;;28.05;20.77;;;;;;;12.22;100.00;92458.69;5056197;28;20044;-76
2023/04/30 07:02:59;;;;;;;26.40;18.88;;;;;;;12.22;100.00;92456.06;5090746;28;20040;-78
2023/04/30 07:05:25;;;;;;;29.88;20.67;;;;;;;12.18;100.00;92460.38;5088903;28;20066;-78
2023/04/30 07:07:51;;;;;;;27.35;20.35;;;;;;;12.14;100.00;92469.91;5087207;28;20389;-76
2023/04/30 07:10:17;;;;;;;34.10;21.67;;;;;;;12.25;100.00;92471.25;5086093;28;20093;-76
2023/04/30 07:12:43;;;;;;;28.95;21.50;;;;;;;12.28;100.00;92464.63;5091459;28;20086;-76
2023/04/30 07:15:10;;;;;;;28.00;20.27;;;;;;;12.55;100.00;92469.00;5079520;28;20055;-77
2023/04/30 07:17:36;;;;;;;31.13;19.98;;;;;;;12.77;100.00;92470.06;5088934;28;20122;-78
2023/04/30 07:20:03;;;;;;;30.92;21.10;;;;;;;12.76;100.00;92463.25;5087511;28;20055;-76
2023/04/30 07:22:30;;;;;;;28.75;20.23;;;;;;;12.90;100.00;92474.47;5083510;28;20123;-79
2023/04/30 07:24:56;;;;;;;32.55;21.20;;;;;;;12.80;100.00;92466.84;5086001;28;20043;-76
2023/04/30 07:27:21;;;;;;;30.80;20.48;;;;;;;12.81;100.00;92469.19;5058045;28;20032;-76
2023/04/30 07:29:48;;;;;;;31.58;22.60;;;;;;;12.68;100.00;92467.38;5069614;28;20049;-76
2023/04/30 07:32:14;;;;;;;30.13;21.45;;;;;;;12.65;100.00;92479.28;5085211;28;20032;-76
2023/04/30 07:34:40;;;;;;;26.77;20.50;;;;;;;12.60;100.00;92471.50;5083364;28;20033;-76
2023/04/30 07:37:06;;;;;;;27.55;21.10;;;;;;;12.49;100.00;92472.78;5086317;28;20505;-77
2023/04/30 07:39:31;;;;;;;30.52;20.25;;;;;;;12.56;100.00;92475.00;5085787;28;20032;-76
2023/04/30 07:41:57;;;;;;;35.90;21.98;;;;;;;12.38;100.00;92464.38;5079537;28;20031;-76
2023/04/30 07:44:23;;;;;;;30.38;21.90;;;;;;;12.43;100.00;92471.38;5088347;28;20367;-77
2023/04/30 07:46:48;;;;;;;31.58;22.00;;;;;;;12.48;100.00;92476.50;5081883;28;20036;-77
2023/04/30 07:49:14;;;;;;;28.40;20.88;;;;;;;12.53;100.00;92476.38;5072434;28;20024;-77
2023/04/30 07:51:41;;;;;;;27.50;20.85;;;;;;;12.56;100.00;92475.00;5091516;28;20036;-77
2023/04/30 07:54:07;;;;;;;31.40;21.35;;;;;;;12.60;100.00;92473.34;5084818;28;20029;-77
2023/04/30 07:56:32;;;;;;;29.55;21.58;;;;;;;12.71;100.00;92478.06;5081048;28;20036;-77
2023/04/30 07:58:58;;;;;;;30.73;20.65;;;;;;;12.77;100.00;92470.84;5085478;28;20032;-77
2023/04/30 08:01:23;;;;;;;30.33;20.90;;;;;;;13.02;100.00;92482.59;5087147;28;20036;-78
2023/04/30 08:03:49;;;;;;;26.88;18.40;;;;;;;13.00;100.00;92479.47;5086400;28;20055;-77
2023/04/30 08:06:14;;;;;;;30.20;20.42;;;;;;;13.00;100.00;92483.97;5089553;28;20586;-76
2023/04/30 08:08:40;;;;;;;28.20;20.75;;;;;;;12.86;100.00;92481.41;5085671;28;20048;-77
2023/04/30 08:11:06;;;;;;;28.15;20.42;;;;;;;12.82;100.00;92483.84;5085566;28;20096;-77
2023/04/30 08:13:31;;;;;;;23.83;18.65;;;;;;;12.95;100.00;92484.88;5075128;28;20048;-77
2023/04/30 08:15:57;;;;;;;27.15;21.33;;;;;;;12.71;100.00;92475.44;5087378;28;20043;-77
2023/04/30 08:18:22;;;;;;;26.38;19.17;;;;;;;12.87;100.00;92488.19;5074644;28;20032;-76
2023/04/30 08:20:48;;;;;;;30.50;20.48;;;;;;;12.88;100.00;92480.03;5090104;28;20572;-77
2023/04/30 08:23:15;;;;;;;30.33;20.77;;;;;;;12.87;100.00;92482.94;5078336;28;20043;-77
2023/04/30 08:25:41;;;;;;;24.73;19.90;;;;;;;12.80;100.00;92485.22;5074979;28;20201;-77
2023/04/30 08:28:06;;;;;;;29.10;20.95;;;;;;;12.84;100.00;92486.19;5079454;28;20608;-77
2023/04/30 08:30:32;;;;;;;29.98;21.33;;;;;;;12.71;100.00;92487.78;5090954;28;20402;-77
2023/04/30 08:32:58;;;;;;;27.33;20.80;;;;;;;12.69;100.00;92485.44;5068522;28;20413;-77
2023/04/30 08:35:23;;;;;;;27.45;20.48;;;;;;;12.82;100.00;92475.97;5069292;28;20031;-76
2023/04/30 08:37:49;;;;;;;25.75;19.40;;;;;;;12.61;100.00;92480.13;5068963;28;20048;-77
2023/04/30 08:40:15;;;;;;;28.38;20.77;;;;;;;12.79;100.00;92488.91;5070390;28;20042;-77
2023/04/30 08:42:46;;;;;;;24.52;19.20;;;;;;;12.88;100.00;92497.66;5069569;28;20525;-77
2023/04/30 08:45:13;;;;;;;27.67;20.42;;;;;;;12.71;100.00;92499.06;5090713;28;20067;-77
2023/04/30 08:47:39;;;;;;;33.33;21.15;;;;;;;12.59;100.00;92498.84;5089289;28;20097;-77
2023/04/30 08:50:06;;;;;;;29.40;22.00;;;;;;;12.55;100.00;92505.75;5085527;28;20123;-77
2023/04/30 08:52:36;;;;;;;30.30;21.23;;;;;;;12.57;100.00;92503.59;5090476;28;20036;-77
2023/04/30 08:55:06;;;;;;;25.73;18.98;;;;;;;12.56;100.00;92509.91;5080858;28;20147;-77
2023/04/30 08:57:32;;;;;;;29.20;21.67;;;;;;;12.43;100.00;92505.50;5081156;28;20032;-77
2023/04/30 08:59:59;;;;;;;27.00;21.48;;;;;;;12.54;100.00;92513.91;5080932;28;20031;-77
2023/04/30 09:02:25;;;;;;;29.33;20.13;;;;;;;12.47;100.00;92506.44;5090760;28;20062;-76
2023/04/30 09:04:51;;;;;;;29.05;20.55;;;;;;;12.58;100.00;92502.53;5088647;28;20505;-76
2023/04/30 09:07:18;;;;;;;32.83;22.10;;;;;;;12.52;100.00;92502.94;5090996;28;20036;-77
2023/04/30 09:09:44;;;;;;;29.08;20.30;;;;;;;12.48;100.00;92506.16;5085818;28;20424;-77
2023/04/30 09:12:16;;;;;;;27.60;22.20;;;;;;;12.42;100.00;92517.84;5072383;28;20032;-77
2023/04/30 09:15:05;;;;;;;23.92;18.33;;;;;;;12.52;100.00;92511.59;5073631;28;20110;-76
2023/04/30 09:17:32;;;;;;;24.77;17.98;;;;;;;12.38;100.00;92509.00;5091934;28;20114;-76
2023/04/30 09:20:12;;;;;;;25.45;18.48;;;;;;;12.47;100.00;92519.56;5076638;28;20048;-76
2023/04/30 09:22:41;;;;;;;30.17;21.08;;;;;;;12.50;100.00;92514.53;5064825;28;20029;-76
2023/04/30 09:25:07;;;;;;;24.35;18.05;;;;;;;12.51;100.00;92520.53;5067084;28;20344;-76
2023/04/30 09:27:33;;;;;;;28.55;19.60;;;;;;;12.57;100.00;92510.72;5070060;28;20508;-76
2023/04/30 09:30:00;;;;;;;27.50;19.42;;;;;;;12.66;100.00;92509.69;5036566;28;20130;-76
2023/04/30 09:32:25;;;;;;;27.73;19.65;;;;;;;12.88;100.00;92502.91;5057361;28;20043;-76
2023/04/30 09:34:51;;;;;;;27.23;19.17;;;;;;;12.92;100.00;92506.47;5067923;28;20032;-76
2023/04/30 09:37:17;;;;;;;26.10;19.10;;;;;;;12.94;100.00;92495.66;5061167;28;20045;-76
2023/04/30 09:39:52;;;;;;;26.75;19.33;;;;;;;13.08;100.00;92499.78;5066561;28;20035;-78
2023/04/30 09:42:18;;;;;;;26.45;18.83;;;;;;;13.22;100.00;92496.31;5055593;28;20117;-78
2023/04/30 09:44:45;;;;;;;29.92;20.08;;;;;;;13.31;100.00;92495.28;5068973;28;20044;-79
2023/04/30 09:47:19;;;;;;;28.13;21.10;;;;;;;13.44;100.00;92498.91;5066854;28;20398;-78
2023/04/30 09:49:50;;;;;;;25.60;19.73;;;;;;;13.70;100.00;92501.63;5069569;28;20075;-78
2023/04/30 09:52:17;;;;;;;27.13;20.23;;;;;;;13.65;100.00;92503.63;5068183;28;20047;-77
2023/04/30 09:54:44;;;;;;;23.73;18.88;;;;;;;13.60;100.00;92498.50;5069105;28;20282;-78
2023/04/30 09:57:12;;;;;;;28.58;20.40;;;;;;;13.71;100.00;92502.41;5059262;28;20169;-77
2023/04/30 09:59:43;;;;;;;23.05;19.67;;;;;;;13.81;100.00;92507.41;5057512;28;20492;-79
2023/04/30 10:02:09;;;;;;;25.63;18.77;;;;;;;13.82;100.00;92498.41;5063001;28;20113;-78
2023/04/30 10:04:36;;;;;;;23.65;18.88;;;;;;;13.95;100.00;92496.75;5066830;28;20372;-78
2023/04/30 10:07:09;;;;;;;23.05;17.90;;;;;;;14.16;100.00;92508.25;5062689;28;20032;-78
2023/04/30 10:09:41;;;;;;;21.92;18.05;;;;;;;14.39;100.00;92508.13;5064801;28;20029;-78
2023/04/30 10:12:15;;;;;;;21.52;18.75;;;;;;;14.38;100.00;92504.72;5064612;28;20056;-77
2023/04/30 10:14:54;;;;;;;24.23;18.70;;;;;;;14.57;100.00;92507.09;5070663;28;20048;-77
2023/04/30 10:17:25;;;;;;;42.22;23.35;;;;;;;14.76;100.00;92495.47;5065495;28;20037;-76
2023/04/30 10:19:56;;;;;;;35.63;19.98;;;;;;;15.05;100.00;92492.16;5058431;28;20101;-77
2023/04/30 10:22:22;;;;;;;28.25;19.35;;;;;;;15.35;100.00;92497.53;5047633;28;20033;-78
2023/04/30 10:24:49;;;;;;;23.15;17.58;;;;;;;15.72;100.00;92497.91;5066723;28;20032;-79
2023/04/30 10:27:15;;;;;;;24.13;18.02;;;;;;;16.23;100.00;92496.06;5064989;28;20052;-78
2023/04/30 10:29:41;;;;;;;66.30;30.00;;;;;;;16.86;100.00;92493.47;5071422;28;20062;-78
2023/04/30 10:32:11;;;;;;;34.67;18.13;;;;;;;16.91;100.00;92487.19;5064195;28;20509;-78
2023/04/30 10:34:42;;;;;;;28.05;18.10;;;;;;;16.67;100.00;92491.25;5066827;28;20506;-76
2023/04/30 10:37:37;;;;;;;32.15;20.13;;;;;;;16.62;100.00;92480.91;5059650;28;20041;-78
2023/04/30 10:40:04;;;;;;;21.23;14.43;;;;;;;16.77;100.00;92490.84;5061683;28;20056;-79
2023/04/30 10:42:30;;;;;;;64.78;34.92;;;;;;;16.49;100.00;92477.41;5063287;28;20031;-78
2023/04/30 10:44:56;;;;;;;74.78;45.25;;;;;;;16.07;100.00;92479.25;5063759;28;20517;-77
2023/04/30 10:47:27;;;;;;;23.15;18.50;;;;;;;16.06;100.00;92472.44;5049491;28;20032;-77
2023/04/30 10:50:04;;;;;;;29.03;19.03;;;;;;;16.09;100.00;92474.41;5066748;28;20044;-77
2023/04/30 10:52:29;;;;;;;20.63;16.65;;;;;;;15.80;100.00;92475.97;5067061;28;20283;-78
2023/04/30 10:54:55;;;;;;;19.70;14.93;;;;;;;15.53;100.00;92471.88;5063434;28;20392;-79
2023/04/30 10:57:21;;;;;;;25.30;19.10;;;;;;;15.46;100.00;92461.03;5070913;28;20040;-78
2023/04/30 10:59:51;;;;;;;22.00;15.88;;;;;;;15.24;100.00;92462.03;5068425;28;20486;-78
2023/04/30 11:02:17;;;;;;;23.05;15.80;;;;;;;15.07;100.00;92462.88;5072519;28;20075;-77
2023/04/30 11:05:08;;;;;;;20.65;15.88;;;;;;;14.82;100.00;92459.19;5073301;28;20024;-79
2023/04/30 11:07:33;;;;;;;15.45;11.93;;;;;;;14.53;100.00;92457.94;5072398;28;20040;-79
2023/04/30 11:10:00;;;;;;;24.92;17.75;;;;;;;14.43;100.00;92447.72;5071910;28;20054;-79
2023/04/30 11:12:27;;;;;;;16.58;14.02;;;;;;;14.36;100.00;92451.59;5055744;28;20124;-79